Latest Weather Observations for Narrandera Airport

IDN60801

Issued at 8:05 am EDT Wednesday 22 October 2014 (issued every 30 minutes, with the page automatically refreshed every 10 minutes)

About weather observations | Map of weather stations | Latest weather observations for NSW | Other Formats
Station Details ID: 074148 Name: NARRANDERA AIRPORT AWS Lat: -34.70 Lon: 146.51 Height: 145.0 m
Data from the previous 72 hours. | See also: Recent months for locations in New South Wales
Date/Time
EDT
Temp
°C
App
Temp
°C
Dew
Point
Rel
Hum
%
Delta-T
°C
Wind Press
QNH
hPa
Press
MSL
hPa
Rain
since 9 am
mm
Dir
 
Spd
km/h
Gust
km/h
Spd
kts
Gust
kts
22/08:00am 15.6 10.8 8.8 64 3.5 NE 24 32 13 17 1023.4 1023.2 0.0
22/07:30am 13.9 10.0 8.7 71 2.6 ENE 19 26 10 14 1023.4 1023.2 0.0
22/07:00am 12.6 9.8 8.5 76 2.0 ENE 13 19 7 10 1023.4 1023.2 0.0
22/06:30am 12.6 9.1 8.7 77 2.0 ENE 17 20 9 11 1023.0 1022.8 0.0
22/06:00am 12.7 10.7 8.8 77 2.0 NE 9 15 5 8 1022.8 1022.6 0.0
22/05:30am 12.7 8.8 8.6 76 2.1 ENE 19 24 10 13 1022.4 1022.1 0.0
22/05:00am 13.5 9.6 8.8 73 2.4 ENE 19 24 10 13 1022.6 1022.3 0.0
22/04:30am 14.1 10.7 9.1 72 2.6 ENE 17 22 9 12 1022.5 1022.2 0.0
22/04:00am 14.3 11.6 8.9 70 2.7 ENE 13 20 7 11 1022.5 1022.2 0.0
22/03:30am 14.8 11.4 9.2 69 2.9 ENE 17 22 9 12 1022.3 1022.0 0.0
22/03:00am 15.3 11.3 9.2 67 3.1 E 20 30 11 16 1022.6 1022.3 0.0
22/02:30am 15.7 11.8 9.4 66 3.3 E 20 28 11 15 1022.8 1022.6 0.0
22/02:00am 16.0 12.2 9.2 64 3.5 E 19 26 10 14 1023.1 1022.9 0.0
22/01:30am 16.2 12.4 9.2 63 3.6 E 19 26 10 14 1023.4 1023.2 0.0
22/01:00am 16.7 12.4 9.4 62 3.8 E 22 32 12 17 1023.5 1023.3 0.0
22/12:30am 17.1 13.2 9.5 61 4.0 E 20 30 11 16 1023.8 1023.6 0.0
22/12:00am 17.5 13.6 9.4 59 4.2 E 20 30 11 16 1024.2 1024.0 0.0
 
Date/Time
EDT
Temp
°C
App
Temp
°C
Dew
Point
Rel
Hum
%
Delta-T
°C
Wind Press
QNH
hPa
Press
MSL
hPa
Rain
since 9 am
mm
Dir
 
Spd
km/h
Gust
km/h
Spd
kts
Gust
kts
21/11:30pm 18.1 13.9 9.7 58 4.5 E 22 32 12 17 1024.3 1024.1 0.0
21/11:00pm 18.7 14.1 9.8 56 4.7 E 24 35 13 19 1024.3 1024.1 0.0
21/10:30pm 19.3 14.8 10.0 55 5.0 E 24 35 13 19 1024.4 1024.2 0.0
21/10:00pm 20.0 15.6 10.4 54 5.2 E 24 33 13 18 1024.3 1024.1 0.0
21/09:30pm 20.8 16.1 10.6 52 5.6 E 26 33 14 18 1024.2 1024.0 0.0
21/09:00pm 21.9 18.0 10.7 49 6.2 E 22 37 12 20 1023.8 1023.6 0.0
21/08:30pm 22.8 18.5 10.6 46 6.8 E 24 32 13 17 1023.4 1023.2 0.0
21/08:00pm 23.8 20.2 10.5 43 7.4 E 20 33 11 18 1023.1 1022.9 0.0
21/07:30pm 25.6 22.5 7.2 31 9.8 E 13 17 7 9 1022.6 1022.3 0.0
21/07:00pm 26.8 23.7 7.3 29 10.4 ENE 13 17 7 9 1022.4 1022.1 0.0
21/06:30pm 28.1 25.0 7.4 27 11.2 E 13 17 7 9 1022.2 1021.9 0.0
21/06:00pm 29.2 26.3 6.6 24 12.1 ENE 11 17 6 9 1022.3 1022.0 0.0
21/05:30pm 29.4 25.8 6.7 24 12.2 E 15 24 8 13 1022.2 1021.9 0.0
21/05:00pm 29.5 26.3 6.8 24 12.2 ENE 13 22 7 12 1022.2 1021.9 0.0
21/04:30pm 30.0 26.1 7.2 24 12.4 ENE 17 24 9 13 1022.4 1022.1 0.0
21/04:00pm 29.5 25.7 7.4 25 12.0 NNE 17 28 9 15 1022.8 1022.6 0.0
21/03:30pm 29.6 27.1 8.1 26 11.8 E 11 20 6 11 1023.1 1022.9 0.0
21/03:00pm 28.7 25.5 6.7 25 11.7 ENE 13 20 7 11 1023.6 1023.4 0.0
21/02:30pm 28.4 24.2 8.1 28 11.1 E 20 26 11 14 1024.1 1023.9 0.0
21/02:00pm 27.9 24.3 8.2 29 10.7 NE 17 28 9 15 1024.6 1024.4 0.0
21/01:30pm 27.5 23.5 8.4 30 10.4 ENE 19 28 10 15 1025.1 1024.9 0.0
21/01:00pm 27.0 22.6 8.9 32 9.9 ENE 22 32 12 17 1025.6 1025.4 0.0
21/12:30pm 25.2 19.8 7.8 33 9.3 ENE 26 35 14 19 1026.0 1025.8 0.0
21/12:00pm 25.1 19.6 9.0 36 8.7 ENE 28 39 15 21 1026.4 1026.2 0.0
21/11:30am 23.2 17.3 8.9 40 7.7 ENE 30 39 16 21 1026.9 1026.6 0.0
21/11:00am 22.1 16.1 8.6 42 7.2 ENE 30 39 16 21 1027.2 1026.9 0.0
21/10:30am 22.0 16.4 8.9 43 7.0 ENE 28 43 15 23 1027.4 1027.1 0.0
21/10:00am 20.3 14.3 8.6 47 6.1 ENE 30 41 16 22 1027.6 1027.3 0.0
21/09:30am 19.4 13.0 8.7 50 5.6 ENE 32 44 17 24 1027.7 1027.4 0.0
21/09:00am 18.3 12.7 8.6 53 5.0 ENE 28 43 15 23 1027.9 1027.6 0.0
21/08:30am 16.7 10.6 8.1 57 4.4 ENE 30 41 16 22 1027.7 1027.4 0.0
21/08:00am 15.5 9.8 8.3 62 3.6 ENE 28 41 15 22 1027.4 1027.1 0.0
21/07:30am 14.3 10.0 8.0 66 3.2 ENE 20 32 11 17 1027.2 1026.9 0.0
21/07:00am 13.3 9.2 8.0 70 2.6 ENE 19 26 10 14 1026.7 1026.5 0.0
21/06:30am 12.7 8.6 7.8 72 2.4 ENE 19 28 10 15 1026.4 1026.2 0.0
21/06:00am 12.8 9.0 7.7 71 2.5 E 17 28 9 15 1026.3 1026.1 0.0
21/05:30am 13.0 8.7 7.7 70 2.6 E 20 32 11 17 1025.8 1025.6 0.0
21/05:00am 13.2 8.5 7.6 69 2.7 E 22 32 12 17 1025.6 1025.4 0.0
21/04:30am 13.2 8.4 7.4 68 2.9 E 22 30 12 16 1025.5 1025.3 0.0
21/04:00am 13.3 8.5 7.3 67 2.9 E 22 35 12 19 1025.4 1025.2 0.0
21/03:30am 13.5 7.9 7.3 66 3.0 E 26 37 14 20 1025.4 1025.2 0.0
21/03:00am 13.7 8.2 7.5 66 3.0 ENE 26 35 14 19 1025.4 1025.2 0.0
21/02:30am 13.8 9.0 7.3 65 3.2 ENE 22 37 12 20 1025.4 1025.2 0.0
21/02:00am 14.0 9.2 7.3 64 3.3 ENE 22 30 12 16 1025.6 1025.4 0.0
21/01:30am 14.1 9.7 7.2 63 3.4 ENE 20 30 11 16 1025.6 1025.4 0.0
21/01:00am 14.3 9.2 7.6 64 3.3 E 24 33 13 18 1025.8 1025.6 0.0
21/12:30am 14.6 10.4 8.1 65 3.3 E 20 30 11 16 1025.9 1025.7 0.0
21/12:00am 15.1 10.9 8.3 64 3.4 ENE 20 28 11 15 1026.0 1025.8 0.0
 
Date/Time
EDT
Temp
°C
App
Temp
°C
Dew
Point
Rel
Hum
%
Delta-T
°C
Wind Press
QNH
hPa
Press
MSL
hPa
Rain
since 9 am
mm
Dir
 
Spd
km/h
Gust
km/h
Spd
kts
Gust
kts
20/11:30pm 15.7 10.8 8.4 62 3.7 E 24 35 13 19 1026.0 1025.8 0.0
20/11:00pm 16.7 12.7 8.9 60 4.0 E 20 30 11 16 1025.7 1025.5 0.0
20/10:30pm 17.7 13.3 9.1 57 4.5 E 22 35 12 19 1025.5 1025.3 0.0
20/10:00pm 19.1 14.0 9.3 53 5.2 E 26 33 14 18 1025.1 1024.9 0.0
20/09:30pm 20.1 16.5 9.9 52 5.5 E 19 28 10 15 1024.7 1024.5 0.0
20/09:00pm 21.9 18.4 10.1 47 6.4 E 19 26 10 14 1024.2 1024.0 0.0
20/08:30pm 21.2 18.5 5.5 36 7.9 S 9 22 5 12 1023.4 1023.2 0.0
20/08:00pm 25.1 22.7 5.3 28 10.1 SW 7 15 4 8 1022.6 1022.3 0.0
20/07:30pm 26.5 23.7 3.1 22 11.6 WSW 7 9 4 5 1022.2 1021.9 0.0
20/07:00pm 28.5 25.2 2.7 19 12.8 WSW 9 11 5 6 1021.9 1021.6 0.0
20/06:30pm 29.8 26.6 2.9 18 13.6 WSW 9 15 5 8 1021.8 1021.5 0.0
20/06:00pm 30.1 26.0 2.4 17 13.8 SW 13 20 7 11 1021.7 1021.4 0.0
20/05:30pm 30.7 25.8 2.0 16 14.3 SW 17 20 9 11 1021.6 1021.3 0.0
20/05:00pm 31.5 26.9 3.5 17 14.4 SSW 17 22 9 12 1021.5 1021.2 0.0
20/04:30pm 31.3 26.1 2.5 16 14.6 SW 19 28 10 15 1021.4 1021.1 0.0
20/04:00pm 32.3 26.6 0.4 13 15.6 WSW 20 26 11 14 1021.4 1021.1 0.0
20/03:30pm 33.0 28.7 0.9 13 16.0 WSW 13 20 7 11 1021.7 1021.4 0.0
20/03:00pm 32.7 28.7 2.7 15 15.3 WSW 13 26 7 14 1022.0 1021.7 0.0
20/02:30pm 32.4 28.1 3.4 16 15.0 SW 15 28 8 15 1022.4 1022.1 0.0
20/02:00pm 31.9 26.6 2.1 15 15.0 W 19 24 10 13 1022.9 1022.7 0.0
20/01:30pm 31.8 27.7 2.0 15 15.0 WSW 13 19 7 10 1023.2 1023.0 0.0
20/01:00pm 30.5 28.0 5.0 20 13.3 WSW 7 15 4 8 1023.4 1023.2 0.0
20/12:30pm 29.2 27.7 6.6 24 12.1 NNW 4 13 2 7 1023.7 1023.5 0.0
20/12:00pm 28.4 27.1 7.6 27 11.2 SSW 4 13 2 7 1024.2 1024.0 0.0
20/11:30am 26.6 25.1 8.6 32 9.8 WNW 6 9 3 5 1024.4 1024.2 0.0
20/11:00am 24.8 23.8 8.7 36 8.7 SSW 4 9 2 5 1024.6 1024.4 0.0
20/10:30am 23.1 20.9 9.5 42 7.4 SW 11 17 6 9 1024.7 1024.5 0.0
20/10:00am 21.8 20.4 9.0 44 6.8 SW 6 9 3 5 1024.6 1024.4 0.0
20/09:30am 19.8 19.4 9.7 52 5.4 WSW 2 7 1 4 1024.5 1024.3 0.0
20/09:00am 18.0 17.5 9.4 57 4.5 W 2 6 1 3 1024.3 1024.1 0.0
20/08:30am 16.1 14.8 9.1 63 3.6 SSW 6 9 3 5 1024.1 1023.9 0.0
20/08:00am 14.4 14.2 9.2 71 2.7 CALM 0 0 0 0 1023.9 1023.7 0.0
20/07:30am 13.1 12.9 9.0 76 2.1 CALM 0 7 0 4 1023.6 1023.4 0.0
20/07:00am 11.4 10.6 6.7 73 2.2 CALM 0 0 0 0 1023.2 1023.0 0.0
20/06:30am 12.5 10.3 8.0 74 2.2 SW 9 11 5 6 1023.0 1022.8 0.0
20/06:00am 13.3 9.9 5.9 61 3.5 SW 13 17 7 9 1022.6 1022.3 0.0
20/05:30am 11.5 10.6 6.0 69 2.6 CALM 0 0 0 0 1021.9 1021.6 0.0
20/05:00am 12.0 10.7 6.1 67 2.8 NE 2 7 1 4 1021.6 1021.3 0.0
20/04:30am 12.7 10.0 5.6 62 3.3 NNE 9 11 5 6 1021.6 1021.3 0.0
20/04:00am 15.7 13.2 5.0 49 5.1 SSW 7 11 4 6 1021.5 1021.2 0.0
20/03:30am 16.7 13.6 5.6 48 5.4 WSW 11 20 6 11 1021.5 1021.2 0.0
20/03:00am 14.6 13.7 6.2 57 4.1 CALM 0 0 0 0 1021.1 1020.8 0.0
20/02:30am 15.5 13.4 5.7 52 4.7 SE 6 7 3 4 1021.3 1021.0 0.0
20/02:00am 14.7 14.1 7.3 61 3.7 CALM 0 0 0 0 1021.6 1021.3 0.0
20/01:30am 15.7 15.1 7.5 58 4.1 CALM 0 0 0 0 1021.8 1021.5 0.0
20/01:00am 16.0 15.1 6.2 52 4.8 CALM 0 0 0 0 1022.1 1021.8 0.0
20/12:30am 17.2 16.3 6.1 48 5.5 CALM 0 7 0 4 1022.4 1022.1 0.0
20/12:00am 16.9 14.7 6.1 49 5.3 SE 7 9 4 5 1022.3 1022.0 0.0
 
Date/Time
EDT
Temp
°C
App
Temp
°C
Dew
Point
Rel
Hum
%
Delta-T
°C
Wind Press
QNH
hPa
Press
MSL
hPa
Rain
since 9 am
mm
Dir
 
Spd
km/h
Gust
km/h
Spd
kts
Gust
kts
19/11:30pm 17.4 15.2 6.3 48 5.5 ESE 7 9 4 5 1022.4 1022.1 0.0
19/11:00pm 18.5 16.3 6.0 44 6.2 SE 7 7 4 4 1022.4 1022.1 0.0
19/10:30pm 18.0 17.3 6.8 48 5.6 CALM 0 0 0 0 1022.3 1022.0 0.0
19/10:00pm 18.4 17.6 6.6 46 5.9 CALM 0 0 0 0 1022.5 1022.2 0.0
19/09:30pm 18.7 16.8 6.9 46 6.0 ESE 6 9 3 5 1022.4 1022.1 0.0
19/09:00pm 19.5 18.8 6.9 44 6.4 CALM 0 0 0 0 1022.2 1021.9 0.0
19/08:30pm 20.8 20.2 7.4 42 6.9 CALM 0 0 0 0 1022.0 1021.7 0.0
19/08:00pm 22.3 21.3 5.7 34 8.4 CALM 0 0 0 0 1021.9 1021.6 0.0
19/07:30pm 24.9 23.9 5.7 29 9.9 CALM 0 0 0 0 1021.6 1021.3 0.0
19/07:00pm 28.0 25.4 3.0 20 12.4 WNW 6 7 3 4 1021.4 1021.1 0.0
19/06:30pm 29.6 26.2 2.0 17 13.7 W 9 15 5 8 1021.2 1020.9 0.0
19/06:00pm 30.4 26.6 1.8 16 14.2 NW 11 17 6 9 1021.1 1020.8 0.0
19/05:30pm 31.3 26.0 1.6 15 14.8 NNW 19 28 10 15 1021.1 1020.8 0.0
19/05:00pm 30.7 26.8 1.1 15 14.5 NW 11 24 6 13 1021.1 1020.8 0.0
19/04:30pm 31.3 27.9 1.6 15 14.8 NNW 9 17 5 9 1021.1 1020.8 0.0
19/04:00pm 31.0 27.4 0.4 14 14.9 NW 9 17 5 9 1021.4 1021.1 0.0
19/03:30pm 31.2 26.5 0.6 14 15.0 WNW 15 20 8 11 1021.9 1021.6 0.0
19/03:00pm 30.8 27.1 0.2 14 14.8 NNW 9 26 5 14 1022.3 1022.0 0.0
19/02:30pm 30.2 25.0 -0.2 14 14.6 N 17 28 9 15 1022.7 1022.5 0.0
19/02:00pm 29.9 25.8 -0.5 14 14.4 N 11 22 6 12 1023.1 1022.9 0.0
19/01:30pm 29.5 26.1 -0.8 14 14.3 NE 7 19 4 10 1023.6 1023.4 0.0
19/01:00pm 29.1 25.1 0.7 16 13.7 NNW 11 19 6 10 1023.9 1023.7 0.0
19/12:30pm 28.5 24.6 1.1 17 13.3 N 11 20 6 11 1024.2 1024.0 0.0
19/12:00pm 27.7 22.9 0.5 17 12.9 NNW 15 22 8 12 1024.5 1024.3 0.0
19/11:30am 26.5 21.7 2.4 21 11.8 N 17 24 9 13 1025.2 1025.0 0.0
19/11:00am 26.7 22.4 5.1 25 11.1 N 17 26 9 14 1025.5 1025.3 0.0
19/10:30am 25.6 20.8 4.7 26 10.6 N 19 26 10 14 1025.8 1025.6 0.0
19/10:00am 24.9 20.4 6.1 30 9.7 N 19 26 10 14 1025.8 1025.6 0.0
19/09:30am 23.0 18.7 5.4 32 8.9 N 17 22 9 12 1025.8 1025.6 0.0
19/09:00am 20.3 17.9 7.0 42 6.8 NE 9 13 5 7 1025.9 1025.7 0.0
19/08:30am 18.6 16.4 7.7 49 5.6 E 9 13 5 7 1025.9 1025.7 0.0

Other Formats:

Comma delimited format used in spreadsheet applications
http://www.bom.gov.au/fwo/IDN60801/IDN60801.95706.axf

JavaScript Object Notation format (JSON) in row-major order
http://www.bom.gov.au/fwo/IDN60801/IDN60801.95706.json